sensor_id;sensor_type;location;lat;lon;timestamp;P1;durP1;ratioP1;P2;durP2;ratioP2
11614;SDS011;5863;52.832;4.758;2024-01-30T00:00:38;20.05;;;14.27;;
11614;SDS011;5863;52.832;4.758;2024-01-30T00:03:06;18.27;;;14.32;;
11614;SDS011;5863;52.832;4.758;2024-01-30T00:05:33;19.30;;;13.75;;
11614;SDS011;5863;52.832;4.758;2024-01-30T00:08:00;17.98;;;13.35;;
11614;SDS011;5863;52.832;4.758;2024-01-30T00:10:26;19.45;;;13.88;;
11614;SDS011;5863;52.832;4.758;2024-01-30T00:12:53;16.67;;;13.98;;
11614;SDS011;5863;52.832;4.758;2024-01-30T00:15:20;17.67;;;13.63;;
11614;SDS011;5863;52.832;4.758;2024-01-30T00:17:47;20.55;;;13.93;;
11614;SDS011;5863;52.832;4.758;2024-01-30T00:20:18;22.55;;;14.60;;
11614;SDS011;5863;52.832;4.758;2024-01-30T00:22:46;17.85;;;13.82;;
11614;SDS011;5863;52.832;4.758;2024-01-30T00:25:12;20.13;;;13.98;;
11614;SDS011;5863;52.832;4.758;2024-01-30T00:27:39;18.23;;;13.60;;
11614;SDS011;5863;52.832;4.758;2024-01-30T00:30:06;19.10;;;14.30;;
11614;SDS011;5863;52.832;4.758;2024-01-30T00:32:34;19.98;;;14.27;;
11614;SDS011;5863;52.832;4.758;2024-01-30T00:35:01;21.17;;;14.40;;
11614;SDS011;5863;52.832;4.758;2024-01-30T00:37:29;18.60;;;13.68;;
11614;SDS011;5863;52.832;4.758;2024-01-30T00:39:56;19.13;;;13.93;;
11614;SDS011;5863;52.832;4.758;2024-01-30T00:42:23;19.30;;;13.98;;
11614;SDS011;5863;52.832;4.758;2024-01-30T00:44:50;20.48;;;14.60;;
11614;SDS011;5863;52.832;4.758;2024-01-30T00:47:17;20.55;;;13.95;;
11614;SDS011;5863;52.832;4.758;2024-01-30T00:49:44;17.90;;;13.43;;
11614;SDS011;5863;52.832;4.758;2024-01-30T00:52:11;17.95;;;13.77;;
11614;SDS011;5863;52.832;4.758;2024-01-30T00:54:39;18.95;;;14.00;;
11614;SDS011;5863;52.832;4.758;2024-01-30T00:57:06;23.08;;;14.63;;
11614;SDS011;5863;52.832;4.758;2024-01-30T00:59:33;16.90;;;14.00;;
11614;SDS011;5863;52.832;4.758;2024-01-30T01:02:00;21.70;;;14.43;;
11614;SDS011;5863;52.832;4.758;2024-01-30T01:04:27;19.75;;;14.23;;
11614;SDS011;5863;52.832;4.758;2024-01-30T01:06:53;18.50;;;14.02;;
11614;SDS011;5863;52.832;4.758;2024-01-30T01:09:20;21.80;;;14.70;;
11614;SDS011;5863;52.832;4.758;2024-01-30T01:11:48;18.73;;;14.13;;
11614;SDS011;5863;52.832;4.758;2024-01-30T01:14:15;23.23;;;14.95;;
11614;SDS011;5863;52.832;4.758;2024-01-30T01:16:42;20.58;;;15.55;;
11614;SDS011;5863;52.832;4.758;2024-01-30T01:19:09;21.08;;;14.95;;
11614;SDS011;5863;52.832;4.758;2024-01-30T01:21:36;19.67;;;15.85;;
11614;SDS011;5863;52.832;4.758;2024-01-30T01:24:03;17.90;;;14.75;;
11614;SDS011;5863;52.832;4.758;2024-01-30T01:26:30;18.40;;;14.32;;
11614;SDS011;5863;52.832;4.758;2024-01-30T01:28:58;21.05;;;15.45;;
11614;SDS011;5863;52.832;4.758;2024-01-30T01:31:25;19.50;;;14.23;;
11614;SDS011;5863;52.832;4.758;2024-01-30T01:33:54;23.00;;;14.68;;
11614;SDS011;5863;52.832;4.758;2024-01-30T01:36:21;20.60;;;14.80;;
11614;SDS011;5863;52.832;4.758;2024-01-30T01:38:48;26.08;;;14.50;;
11614;SDS011;5863;52.832;4.758;2024-01-30T01:41:15;21.63;;;14.75;;
11614;SDS011;5863;52.832;4.758;2024-01-30T01:43:42;21.75;;;14.90;;
11614;SDS011;5863;52.832;4.758;2024-01-30T01:46:10;21.33;;;13.98;;
11614;SDS011;5863;52.832;4.758;2024-01-30T01:48:37;18.40;;;14.18;;
11614;SDS011;5863;52.832;4.758;2024-01-30T01:51:05;18.45;;;13.80;;
11614;SDS011;5863;52.832;4.758;2024-01-30T01:53:33;19.10;;;14.15;;
11614;SDS011;5863;52.832;4.758;2024-01-30T01:56:00;17.38;;;13.70;;
11614;SDS011;5863;52.832;4.758;2024-01-30T01:58:27;18.05;;;13.40;;
11614;SDS011;5863;52.832;4.758;2024-01-30T02:00:56;18.33;;;13.32;;
11614;SDS011;5863;52.832;4.758;2024-01-30T02:03:25;17.85;;;13.07;;
11614;SDS011;5863;52.832;4.758;2024-01-30T02:05:52;17.33;;;13.35;;
11614;SDS011;5863;52.832;4.758;2024-01-30T02:08:19;18.17;;;13.10;;
11614;SDS011;5863;52.832;4.758;2024-01-30T02:10:46;19.20;;;13.07;;
11614;SDS011;5863;52.832;4.758;2024-01-30T02:13:13;19.75;;;13.77;;
11614;SDS011;5863;52.832;4.758;2024-01-30T02:15:40;16.90;;;12.98;;
11614;SDS011;5863;52.832;4.758;2024-01-30T02:18:07;16.30;;;12.77;;
11614;SDS011;5863;52.832;4.758;2024-01-30T02:20:35;16.83;;;12.93;;
11614;SDS011;5863;52.832;4.758;2024-01-30T02:23:05;19.92;;;13.95;;
11614;SDS011;5863;52.832;4.758;2024-01-30T02:25:36;22.23;;;14.50;;
11614;SDS011;5863;52.832;4.758;2024-01-30T02:28:09;19.73;;;13.65;;
11614;SDS011;5863;52.832;4.758;2024-01-30T02:30:36;19.25;;;13.30;;
11614;SDS011;5863;52.832;4.758;2024-01-30T02:33:02;18.08;;;13.13;;
11614;SDS011;5863;52.832;4.758;2024-01-30T02:35:29;21.30;;;13.63;;
11614;SDS011;5863;52.832;4.758;2024-01-30T02:37:56;18.50;;;13.50;;
11614;SDS011;5863;52.832;4.758;2024-01-30T02:40:25;19.23;;;13.25;;
11614;SDS011;5863;52.832;4.758;2024-01-30T02:42:51;19.88;;;13.75;;
11614;SDS011;5863;52.832;4.758;2024-01-30T02:45:18;20.13;;;13.95;;
11614;SDS011;5863;52.832;4.758;2024-01-30T02:47:45;18.98;;;13.55;;
11614;SDS011;5863;52.832;4.758;2024-01-30T02:50:12;17.52;;;12.70;;
11614;SDS011;5863;52.832;4.758;2024-01-30T02:52:40;18.27;;;13.38;;
11614;SDS011;5863;52.832;4.758;2024-01-30T02:55:08;20.45;;;13.70;;
11614;SDS011;5863;52.832;4.758;2024-01-30T02:57:37;16.70;;;12.70;;
11614;SDS011;5863;52.832;4.758;2024-01-30T03:00:04;17.50;;;12.63;;
11614;SDS011;5863;52.832;4.758;2024-01-30T03:02:34;18.42;;;12.27;;
11614;SDS011;5863;52.832;4.758;2024-01-30T03:05:01;19.13;;;12.50;;
11614;SDS011;5863;52.832;4.758;2024-01-30T03:07:28;18.70;;;12.73;;
11614;SDS011;5863;52.832;4.758;2024-01-30T03:09:57;22.45;;;12.65;;
11614;SDS011;5863;52.832;4.758;2024-01-30T03:12:23;15.70;;;12.40;;
11614;SDS011;5863;52.832;4.758;2024-01-30T03:14:52;15.98;;;12.25;;
11614;SDS011;5863;52.832;4.758;2024-01-30T03:17:18;16.83;;;13.05;;
11614;SDS011;5863;52.832;4.758;2024-01-30T03:19:45;17.73;;;12.68;;
11614;SDS011;5863;52.832;4.758;2024-01-30T03:22:12;15.80;;;12.73;;
11614;SDS011;5863;52.832;4.758;2024-01-30T03:24:39;20.42;;;12.57;;
11614;SDS011;5863;52.832;4.758;2024-01-30T03:27:06;19.30;;;13.10;;
11614;SDS011;5863;52.832;4.758;2024-01-30T03:29:33;20.52;;;12.70;;
11614;SDS011;5863;52.832;4.758;2024-01-30T03:32:01;20.00;;;12.50;;
11614;SDS011;5863;52.832;4.758;2024-01-30T03:34:29;19.33;;;12.70;;
11614;SDS011;5863;52.832;4.758;2024-01-30T03:36:55;16.65;;;12.20;;
11614;SDS011;5863;52.832;4.758;2024-01-30T03:39:22;15.70;;;12.65;;
11614;SDS011;5863;52.832;4.758;2024-01-30T03:41:49;15.77;;;11.93;;
11614;SDS011;5863;52.832;4.758;2024-01-30T03:44:16;18.63;;;13.02;;
11614;SDS011;5863;52.832;4.758;2024-01-30T03:46:43;17.23;;;12.65;;
11614;SDS011;5863;52.832;4.758;2024-01-30T03:49:11;15.23;;;12.32;;
11614;SDS011;5863;52.832;4.758;2024-01-30T03:51:38;18.08;;;12.38;;
11614;SDS011;5863;52.832;4.758;2024-01-30T03:54:05;17.35;;;12.50;;
11614;SDS011;5863;52.832;4.758;2024-01-30T03:56:32;18.60;;;12.50;;
11614;SDS011;5863;52.832;4.758;2024-01-30T03:58:59;18.48;;;13.13;;
11614;SDS011;5863;52.832;4.758;2024-01-30T04:01:27;18.05;;;12.60;;
11614;SDS011;5863;52.832;4.758;2024-01-30T04:03:54;19.38;;;12.77;;
11614;SDS011;5863;52.832;4.758;2024-01-30T04:06:22;18.77;;;12.45;;
11614;SDS011;5863;52.832;4.758;2024-01-30T04:08:49;18.40;;;12.40;;
11614;SDS011;5863;52.832;4.758;2024-01-30T04:11:18;19.65;;;12.48;;
11614;SDS011;5863;52.832;4.758;2024-01-30T04:13:44;16.67;;;12.48;;
11614;SDS011;5863;52.832;4.758;2024-01-30T04:16:18;19.10;;;12.85;;
11614;SDS011;5863;52.832;4.758;2024-01-30T04:18:47;16.10;;;12.18;;
11614;SDS011;5863;52.832;4.758;2024-01-30T04:21:14;16.67;;;12.50;;
11614;SDS011;5863;52.832;4.758;2024-01-30T04:23:42;19.67;;;13.13;;
11614;SDS011;5863;52.832;4.758;2024-01-30T04:26:09;15.50;;;11.48;;
11614;SDS011;5863;52.832;4.758;2024-01-30T04:28:36;15.82;;;12.50;;
11614;SDS011;5863;52.832;4.758;2024-01-30T04:31:02;19.08;;;12.68;;
11614;SDS011;5863;52.832;4.758;2024-01-30T04:33:30;17.85;;;12.63;;
11614;SDS011;5863;52.832;4.758;2024-01-30T04:35:56;16.65;;;12.80;;
11614;SDS011;5863;52.832;4.758;2024-01-30T04:38:23;18.00;;;12.40;;
11614;SDS011;5863;52.832;4.758;2024-01-30T04:40:51;16.50;;;11.95;;
11614;SDS011;5863;52.832;4.758;2024-01-30T04:43:18;13.88;;;11.55;;
11614;SDS011;5863;52.832;4.758;2024-01-30T04:45:45;16.95;;;12.27;;
11614;SDS011;5863;52.832;4.758;2024-01-30T04:48:12;16.65;;;12.35;;
11614;SDS011;5863;52.832;4.758;2024-01-30T04:50:39;17.88;;;12.80;;
11614;SDS011;5863;52.832;4.758;2024-01-30T04:53:06;17.52;;;11.88;;
11614;SDS011;5863;52.832;4.758;2024-01-30T04:55:33;16.15;;;12.05;;
11614;SDS011;5863;52.832;4.758;2024-01-30T04:58:02;18.67;;;12.13;;
11614;SDS011;5863;52.832;4.758;2024-01-30T05:00:29;15.82;;;11.50;;
11614;SDS011;5863;52.832;4.758;2024-01-30T05:02:56;14.27;;;11.48;;
11614;SDS011;5863;52.832;4.758;2024-01-30T05:05:23;16.35;;;11.40;;
11614;SDS011;5863;52.832;4.758;2024-01-30T05:07:50;14.40;;;12.30;;
11614;SDS011;5863;52.832;4.758;2024-01-30T05:10:16;15.23;;;11.65;;
11614;SDS011;5863;52.832;4.758;2024-01-30T05:12:43;17.92;;;12.15;;
11614;SDS011;5863;52.832;4.758;2024-01-30T05:15:12;15.65;;;11.73;;
11614;SDS011;5863;52.832;4.758;2024-01-30T05:17:38;13.20;;;11.55;;
11614;SDS011;5863;52.832;4.758;2024-01-30T05:20:06;14.77;;;11.73;;
11614;SDS011;5863;52.832;4.758;2024-01-30T05:22:33;16.60;;;11.93;;
11614;SDS011;5863;52.832;4.758;2024-01-30T05:25:00;15.30;;;12.35;;
11614;SDS011;5863;52.832;4.758;2024-01-30T05:27:27;17.00;;;11.65;;
11614;SDS011;5863;52.832;4.758;2024-01-30T05:29:54;17.25;;;11.40;;
11614;SDS011;5863;52.832;4.758;2024-01-30T05:32:22;15.68;;;12.05;;
11614;SDS011;5863;52.832;4.758;2024-01-30T05:34:49;16.30;;;12.02;;
11614;SDS011;5863;52.832;4.758;2024-01-30T05:37:16;16.23;;;11.32;;
11614;SDS011;5863;52.832;4.758;2024-01-30T05:39:43;14.77;;;11.73;;
11614;SDS011;5863;52.832;4.758;2024-01-30T05:42:09;16.50;;;11.45;;
11614;SDS011;5863;52.832;4.758;2024-01-30T05:44:36;15.27;;;11.25;;
11614;SDS011;5863;52.832;4.758;2024-01-30T05:47:03;16.58;;;12.07;;
11614;SDS011;5863;52.832;4.758;2024-01-30T05:49:31;15.48;;;11.80;;
11614;SDS011;5863;52.832;4.758;2024-01-30T05:51:58;15.35;;;11.25;;
11614;SDS011;5863;52.832;4.758;2024-01-30T05:54:25;14.55;;;11.13;;
11614;SDS011;5863;52.832;4.758;2024-01-30T05:56:52;16.73;;;10.93;;
11614;SDS011;5863;52.832;4.758;2024-01-30T05:59:19;18.08;;;11.70;;
11614;SDS011;5863;52.832;4.758;2024-01-30T06:01:46;14.25;;;10.50;;
11614;SDS011;5863;52.832;4.758;2024-01-30T06:04:13;16.95;;;11.40;;
11614;SDS011;5863;52.832;4.758;2024-01-30T06:06:41;17.60;;;11.20;;
11614;SDS011;5863;52.832;4.758;2024-01-30T06:09:08;13.77;;;10.77;;
11614;SDS011;5863;52.832;4.758;2024-01-30T06:11:35;16.65;;;11.20;;
11614;SDS011;5863;52.832;4.758;2024-01-30T06:14:02;18.60;;;11.15;;
11614;SDS011;5863;52.832;4.758;2024-01-30T06:16:29;14.70;;;10.68;;
11614;SDS011;5863;52.832;4.758;2024-01-30T06:18:55;16.33;;;10.77;;
11614;SDS011;5863;52.832;4.758;2024-01-30T06:21:23;15.63;;;10.63;;
11614;SDS011;5863;52.832;4.758;2024-01-30T06:23:51;14.80;;;10.57;;
11614;SDS011;5863;52.832;4.758;2024-01-30T06:26:18;16.38;;;10.45;;
11614;SDS011;5863;52.832;4.758;2024-01-30T06:28:45;14.55;;;9.95;;
11614;SDS011;5863;52.832;4.758;2024-01-30T06:31:12;15.60;;;10.50;;
11614;SDS011;5863;52.832;4.758;2024-01-30T06:33:39;19.35;;;11.90;;
11614;SDS011;5863;52.832;4.758;2024-01-30T06:36:07;18.40;;;10.90;;
11614;SDS011;5863;52.832;4.758;2024-01-30T06:38:34;14.65;;;10.15;;
11614;SDS011;5863;52.832;4.758;2024-01-30T06:41:02;13.88;;;10.40;;
11614;SDS011;5863;52.832;4.758;2024-01-30T06:43:29;14.10;;;10.07;;
11614;SDS011;5863;52.832;4.758;2024-01-30T06:45:56;17.60;;;10.07;;
11614;SDS011;5863;52.832;4.758;2024-01-30T06:48:24;19.05;;;10.35;;
11614;SDS011;5863;52.832;4.758;2024-01-30T06:50:53;15.90;;;9.13;;
11614;SDS011;5863;52.832;4.758;2024-01-30T06:53:20;15.60;;;8.70;;
11614;SDS011;5863;52.832;4.758;2024-01-30T06:55:46;13.15;;;7.68;;
11614;SDS011;5863;52.832;4.758;2024-01-30T06:58:15;17.42;;;8.73;;
11614;SDS011;5863;52.832;4.758;2024-01-30T07:00:41;14.70;;;7.82;;
11614;SDS011;5863;52.832;4.758;2024-01-30T07:03:08;15.90;;;8.50;;
11614;SDS011;5863;52.832;4.758;2024-01-30T07:05:35;16.38;;;8.15;;
11614;SDS011;5863;52.832;4.758;2024-01-30T07:08:02;13.20;;;8.35;;
11614;SDS011;5863;52.832;4.758;2024-01-30T07:10:29;16.02;;;7.63;;
11614;SDS011;5863;52.832;4.758;2024-01-30T07:12:56;16.45;;;8.05;;
11614;SDS011;5863;52.832;4.758;2024-01-30T07:15:25;16.60;;;7.45;;
11614;SDS011;5863;52.832;4.758;2024-01-30T07:17:51;15.43;;;8.07;;
11614;SDS011;5863;52.832;4.758;2024-01-30T07:20:18;14.27;;;7.95;;
11614;SDS011;5863;52.832;4.758;2024-01-30T07:22:45;13.60;;;7.82;;
11614;SDS011;5863;52.832;4.758;2024-01-30T07:25:12;11.40;;;7.57;;
11614;SDS011;5863;52.832;4.758;2024-01-30T07:27:40;18.20;;;8.73;;
11614;SDS011;5863;52.832;4.758;2024-01-30T07:30:07;11.57;;;8.15;;
11614;SDS011;5863;52.832;4.758;2024-01-30T07:32:35;13.13;;;7.82;;
11614;SDS011;5863;52.832;4.758;2024-01-30T07:35:02;13.73;;;7.95;;
11614;SDS011;5863;52.832;4.758;2024-01-30T07:37:29;15.32;;;8.50;;
11614;SDS011;5863;52.832;4.758;2024-01-30T07:39:56;12.40;;;8.35;;
11614;SDS011;5863;52.832;4.758;2024-01-30T07:42:23;14.32;;;8.85;;
11614;SDS011;5863;52.832;4.758;2024-01-30T07:44:50;15.23;;;8.02;;
11614;SDS011;5863;52.832;4.758;2024-01-30T07:47:17;12.60;;;8.30;;
11614;SDS011;5863;52.832;4.758;2024-01-30T07:49:46;14.55;;;8.20;;
11614;SDS011;5863;52.832;4.758;2024-01-30T07:52:12;11.80;;;8.00;;
11614;SDS011;5863;52.832;4.758;2024-01-30T07:54:39;14.20;;;8.10;;
11614;SDS011;5863;52.832;4.758;2024-01-30T07:57:06;18.67;;;8.70;;
11614;SDS011;5863;52.832;4.758;2024-01-30T07:59:33;13.07;;;8.02;;
11614;SDS011;5863;52.832;4.758;2024-01-30T08:02:00;15.85;;;8.30;;
11614;SDS011;5863;52.832;4.758;2024-01-30T08:04:27;15.60;;;8.48;;
11614;SDS011;5863;52.832;4.758;2024-01-30T08:06:55;17.10;;;8.20;;
11614;SDS011;5863;52.832;4.758;2024-01-30T08:09:22;16.55;;;8.73;;
11614;SDS011;5863;52.832;4.758;2024-01-30T08:11:49;13.27;;;8.35;;
11614;SDS011;5863;52.832;4.758;2024-01-30T08:14:15;15.82;;;8.88;;
11614;SDS011;5863;52.832;4.758;2024-01-30T08:16:42;17.65;;;9.45;;
11614;SDS011;5863;52.832;4.758;2024-01-30T08:19:09;14.98;;;8.50;;
11614;SDS011;5863;52.832;4.758;2024-01-30T08:21:36;18.30;;;8.82;;
11614;SDS011;5863;52.832;4.758;2024-01-30T08:24:04;16.35;;;9.55;;
11614;SDS011;5863;52.832;4.758;2024-01-30T08:26:32;14.63;;;8.73;;
11614;SDS011;5863;52.832;4.758;2024-01-30T08:29:00;18.10;;;10.00;;
11614;SDS011;5863;52.832;4.758;2024-01-30T08:31:27;16.85;;;9.55;;
11614;SDS011;5863;52.832;4.758;2024-01-30T08:33:54;18.45;;;9.30;;
11614;SDS011;5863;52.832;4.758;2024-01-30T08:36:21;18.45;;;9.35;;
11614;SDS011;5863;52.832;4.758;2024-01-30T08:38:48;17.67;;;8.93;;
11614;SDS011;5863;52.832;4.758;2024-01-30T08:41:17;19.00;;;8.73;;
11614;SDS011;5863;52.832;4.758;2024-01-30T08:43:43;15.15;;;9.20;;
11614;SDS011;5863;52.832;4.758;2024-01-30T08:46:10;19.98;;;9.07;;
11614;SDS011;5863;52.832;4.758;2024-01-30T08:48:38;19.00;;;9.30;;
11614;SDS011;5863;52.832;4.758;2024-01-30T08:51:04;17.30;;;9.20;;
11614;SDS011;5863;52.832;4.758;2024-01-30T08:53:33;20.58;;;8.88;;
11614;SDS011;5863;52.832;4.758;2024-01-30T08:56:01;19.60;;;8.50;;
11614;SDS011;5863;52.832;4.758;2024-01-30T08:58:29;16.65;;;8.45;;
11614;SDS011;5863;52.832;4.758;2024-01-30T09:00:56;26.23;;;8.68;;
11614;SDS011;5863;52.832;4.758;2024-01-30T09:03:23;23.58;;;7.82;;
11614;SDS011;5863;52.832;4.758;2024-01-30T09:05:50;24.05;;;7.95;;
11614;SDS011;5863;52.832;4.758;2024-01-30T09:08:17;22.88;;;7.05;;
11614;SDS011;5863;52.832;4.758;2024-01-30T09:10:44;20.80;;;6.10;;
11614;SDS011;5863;52.832;4.758;2024-01-30T09:13:11;24.98;;;6.22;;
11614;SDS011;5863;52.832;4.758;2024-01-30T09:15:39;16.40;;;5.68;;
11614;SDS011;5863;52.832;4.758;2024-01-30T09:18:06;16.95;;;5.18;;
11614;SDS011;5863;52.832;4.758;2024-01-30T09:20:33;26.15;;;7.00;;
11614;SDS011;5863;52.832;4.758;2024-01-30T09:23:00;21.63;;;6.03;;
11614;SDS011;5863;52.832;4.758;2024-01-30T09:25:26;26.08;;;5.43;;
11614;SDS011;5863;52.832;4.758;2024-01-30T09:27:53;20.80;;;5.15;;
11614;SDS011;5863;52.832;4.758;2024-01-30T09:30:20;19.88;;;6.38;;
11614;SDS011;5863;52.832;4.758;2024-01-30T09:32:48;21.63;;;4.80;;
11614;SDS011;5863;52.832;4.758;2024-01-30T09:35:15;14.82;;;4.13;;
11614;SDS011;5863;52.832;4.758;2024-01-30T09:37:42;13.85;;;4.18;;
11614;SDS011;5863;52.832;4.758;2024-01-30T09:40:09;20.67;;;3.47;;
11614;SDS011;5863;52.832;4.758;2024-01-30T09:42:36;15.48;;;3.33;;
11614;SDS011;5863;52.832;4.758;2024-01-30T09:45:04;12.88;;;3.40;;
11614;SDS011;5863;52.832;4.758;2024-01-30T09:47:32;13.32;;;3.03;;
11614;SDS011;5863;52.832;4.758;2024-01-30T09:50:03;13.90;;;3.35;;
11614;SDS011;5863;52.832;4.758;2024-01-30T09:52:31;12.27;;;2.78;;
11614;SDS011;5863;52.832;4.758;2024-01-30T09:54:58;11.88;;;2.55;;
11614;SDS011;5863;52.832;4.758;2024-01-30T09:57:26;15.00;;;2.70;;
11614;SDS011;5863;52.832;4.758;2024-01-30T09:59:53;14.85;;;2.55;;
11614;SDS011;5863;52.832;4.758;2024-01-30T10:02:20;11.13;;;2.42;;
11614;SDS011;5863;52.832;4.758;2024-01-30T10:04:47;13.20;;;2.33;;
11614;SDS011;5863;52.832;4.758;2024-01-30T10:07:16;14.93;;;2.30;;
11614;SDS011;5863;52.832;4.758;2024-01-30T10:09:43;8.88;;;2.42;;
11614;SDS011;5863;52.832;4.758;2024-01-30T10:12:10;9.25;;;2.40;;
11614;SDS011;5863;52.832;4.758;2024-01-30T10:14:37;8.85;;;2.10;;
11614;SDS011;5863;52.832;4.758;2024-01-30T10:17:05;14.65;;;2.63;;
11614;SDS011;5863;52.832;4.758;2024-01-30T10:19:33;12.68;;;2.80;;
11614;SDS011;5863;52.832;4.758;2024-01-30T10:22:00;9.18;;;3.00;;
11614;SDS011;5863;52.832;4.758;2024-01-30T10:24:28;12.52;;;2.83;;
11614;SDS011;5863;52.832;4.758;2024-01-30T10:26:55;11.75;;;2.30;;
11614;SDS011;5863;52.832;4.758;2024-01-30T10:29:23;13.13;;;3.35;;
11614;SDS011;5863;52.832;4.758;2024-01-30T10:32:00;10.25;;;2.70;;
11614;SDS011;5863;52.832;4.758;2024-01-30T10:34:27;14.32;;;2.65;;
11614;SDS011;5863;52.832;4.758;2024-01-30T10:36:58;14.65;;;2.97;;
11614;SDS011;5863;52.832;4.758;2024-01-30T10:39:30;13.15;;;2.70;;
11614;SDS011;5863;52.832;4.758;2024-01-30T10:42:03;14.13;;;3.00;;
11614;SDS011;5863;52.832;4.758;2024-01-30T10:44:33;13.82;;;2.55;;
11614;SDS011;5863;52.832;4.758;2024-01-30T10:47:06;17.88;;;2.65;;
11614;SDS011;5863;52.832;4.758;2024-01-30T10:49:37;13.18;;;2.72;;
11614;SDS011;5863;52.832;4.758;2024-01-30T10:52:05;9.93;;;2.72;;
11614;SDS011;5863;52.832;4.758;2024-01-30T10:54:35;9.95;;;2.35;;
11614;SDS011;5863;52.832;4.758;2024-01-30T10:57:03;11.82;;;2.45;;
11614;SDS011;5863;52.832;4.758;2024-01-30T10:59:31;8.40;;;2.20;;
11614;SDS011;5863;52.832;4.758;2024-01-30T11:01:59;16.80;;;3.00;;
11614;SDS011;5863;52.832;4.758;2024-01-30T11:04:26;12.52;;;2.42;;
11614;SDS011;5863;52.832;4.758;2024-01-30T11:06:53;11.55;;;3.33;;
11614;SDS011;5863;52.832;4.758;2024-01-30T11:09:20;12.43;;;3.13;;
11614;SDS011;5863;52.832;4.758;2024-01-30T11:11:49;12.70;;;3.30;;
11614;SDS011;5863;52.832;4.758;2024-01-30T11:14:22;10.68;;;2.47;;
11614;SDS011;5863;52.832;4.758;2024-01-30T11:16:50;12.63;;;2.70;;
11614;SDS011;5863;52.832;4.758;2024-01-30T11:19:22;8.48;;;2.40;;
11614;SDS011;5863;52.832;4.758;2024-01-30T11:21:50;13.95;;;2.10;;
11614;SDS011;5863;52.832;4.758;2024-01-30T11:24:19;16.10;;;2.60;;
11614;SDS011;5863;52.832;4.758;2024-01-30T11:26:47;12.85;;;2.85;;
11614;SDS011;5863;52.832;4.758;2024-01-30T11:29:16;12.68;;;2.42;;
11614;SDS011;5863;52.832;4.758;2024-01-30T11:31:53;15.02;;;3.00;;
11614;SDS011;5863;52.832;4.758;2024-01-30T11:34:20;19.67;;;3.42;;
11614;SDS011;5863;52.832;4.758;2024-01-30T11:36:51;19.27;;;2.97;;
11614;SDS011;5863;52.832;4.758;2024-01-30T11:39:24;12.65;;;2.70;;
11614;SDS011;5863;52.832;4.758;2024-01-30T11:41:53;10.95;;;2.55;;
11614;SDS011;5863;52.832;4.758;2024-01-30T11:44:20;9.60;;;2.20;;
11614;SDS011;5863;52.832;4.758;2024-01-30T11:46:48;9.98;;;2.30;;
11614;SDS011;5863;52.832;4.758;2024-01-30T11:49:15;11.05;;;1.80;;
11614;SDS011;5863;52.832;4.758;2024-01-30T11:51:43;10.40;;;2.28;;
11614;SDS011;5863;52.832;4.758;2024-01-30T11:54:13;10.50;;;2.20;;
11614;SDS011;5863;52.832;4.758;2024-01-30T11:56:40;10.52;;;2.17;;
11614;SDS011;5863;52.832;4.758;2024-01-30T11:59:09;10.38;;;2.40;;
11614;SDS011;5863;52.832;4.758;2024-01-30T12:01:36;11.02;;;2.83;;
11614;SDS011;5863;52.832;4.758;2024-01-30T12:04:03;11.95;;;2.78;;
11614;SDS011;5863;52.832;4.758;2024-01-30T12:06:33;8.02;;;1.90;;
11614;SDS011;5863;52.832;4.758;2024-01-30T12:09:00;9.60;;;2.22;;
11614;SDS011;5863;52.832;4.758;2024-01-30T12:11:29;8.98;;;1.90;;
11614;SDS011;5863;52.832;4.758;2024-01-30T12:13:56;9.43;;;1.95;;
11614;SDS011;5863;52.832;4.758;2024-01-30T12:16:25;12.52;;;2.70;;
11614;SDS011;5863;52.832;4.758;2024-01-30T12:18:59;10.50;;;2.60;;
11614;SDS011;5863;52.832;4.758;2024-01-30T12:21:27;5.18;;;1.95;;
11614;SDS011;5863;52.832;4.758;2024-01-30T12:23:54;9.57;;;2.42;;
11614;SDS011;5863;52.832;4.758;2024-01-30T12:26:21;13.80;;;2.22;;
11614;SDS011;5863;52.832;4.758;2024-01-30T12:28:49;9.80;;;2.20;;
11614;SDS011;5863;52.832;4.758;2024-01-30T12:31:16;13.57;;;3.00;;
11614;SDS011;5863;52.832;4.758;2024-01-30T12:33:45;6.22;;;2.10;;
11614;SDS011;5863;52.832;4.758;2024-01-30T12:36:15;13.68;;;2.50;;
11614;SDS011;5863;52.832;4.758;2024-01-30T12:38:43;12.20;;;2.78;;
11614;SDS011;5863;52.832;4.758;2024-01-30T12:41:10;9.35;;;2.22;;
11614;SDS011;5863;52.832;4.758;2024-01-30T12:43:37;12.93;;;2.00;;
11614;SDS011;5863;52.832;4.758;2024-01-30T12:46:04;13.57;;;2.45;;
11614;SDS011;5863;52.832;4.758;2024-01-30T12:48:32;11.85;;;2.25;;
11614;SDS011;5863;52.832;4.758;2024-01-30T12:51:00;8.63;;;1.88;;
11614;SDS011;5863;52.832;4.758;2024-01-30T12:53:27;13.90;;;2.90;;
11614;SDS011;5863;52.832;4.758;2024-01-30T12:55:54;5.50;;;1.60;;
11614;SDS011;5863;52.832;4.758;2024-01-30T12:58:21;13.55;;;2.42;;
11614;SDS011;5863;52.832;4.758;2024-01-30T13:00:47;6.55;;;2.17;;
11614;SDS011;5863;52.832;4.758;2024-01-30T13:03:14;4.10;;;1.58;;
11614;SDS011;5863;52.832;4.758;2024-01-30T13:05:41;7.63;;;2.30;;
11614;SDS011;5863;52.832;4.758;2024-01-30T13:08:10;7.32;;;1.90;;
11614;SDS011;5863;52.832;4.758;2024-01-30T13:10:37;8.77;;;1.95;;
11614;SDS011;5863;52.832;4.758;2024-01-30T13:13:04;5.85;;;2.15;;
11614;SDS011;5863;52.832;4.758;2024-01-30T13:15:31;6.28;;;1.95;;
11614;SDS011;5863;52.832;4.758;2024-01-30T13:17:57;6.80;;;2.20;;
11614;SDS011;5863;52.832;4.758;2024-01-30T13:20:24;7.38;;;2.53;;
11614;SDS011;5863;52.832;4.758;2024-01-30T13:22:51;10.50;;;2.45;;
11614;SDS011;5863;52.832;4.758;2024-01-30T13:25:20;7.03;;;1.92;;
11614;SDS011;5863;52.832;4.758;2024-01-30T13:27:46;6.25;;;2.08;;
11614;SDS011;5863;52.832;4.758;2024-01-30T13:30:13;7.03;;;2.08;;
11614;SDS011;5863;52.832;4.758;2024-01-30T13:32:40;9.43;;;2.22;;
11614;SDS011;5863;52.832;4.758;2024-01-30T13:35:09;8.82;;;2.50;;
11614;SDS011;5863;52.832;4.758;2024-01-30T13:37:36;9.90;;;2.80;;
11614;SDS011;5863;52.832;4.758;2024-01-30T13:40:03;13.10;;;2.60;;
11614;SDS011;5863;52.832;4.758;2024-01-30T13:42:35;13.75;;;2.67;;
11614;SDS011;5863;52.832;4.758;2024-01-30T13:45:02;7.90;;;2.47;;
11614;SDS011;5863;52.832;4.758;2024-01-30T13:47:29;12.85;;;3.08;;
11614;SDS011;5863;52.832;4.758;2024-01-30T13:49:56;11.38;;;3.20;;
11614;SDS011;5863;52.832;4.758;2024-01-30T13:52:23;13.02;;;3.55;;
11614;SDS011;5863;52.832;4.758;2024-01-30T13:54:50;10.88;;;3.50;;
11614;SDS011;5863;52.832;4.758;2024-01-30T13:57:17;13.50;;;3.20;;
11614;SDS011;5863;52.832;4.758;2024-01-30T13:59:45;12.23;;;3.97;;
11614;SDS011;5863;52.832;4.758;2024-01-30T14:02:12;14.13;;;3.58;;
11614;SDS011;5863;52.832;4.758;2024-01-30T14:04:39;11.98;;;4.05;;
11614;SDS011;5863;52.832;4.758;2024-01-30T14:07:05;12.50;;;4.32;;
11614;SDS011;5863;52.832;4.758;2024-01-30T14:09:32;13.40;;;4.50;;
11614;SDS011;5863;52.832;4.758;2024-01-30T14:11:59;9.50;;;4.28;;
11614;SDS011;5863;52.832;4.758;2024-01-30T14:14:26;15.80;;;3.88;;
11614;SDS011;5863;52.832;4.758;2024-01-30T14:16:54;11.00;;;3.58;;
11614;SDS011;5863;52.832;4.758;2024-01-30T14:19:21;11.23;;;3.90;;
11614;SDS011;5863;52.832;4.758;2024-01-30T14:21:48;14.15;;;3.78;;
11614;SDS011;5863;52.832;4.758;2024-01-30T14:24:15;14.65;;;3.83;;
11614;SDS011;5863;52.832;4.758;2024-01-30T14:26:42;10.88;;;3.75;;
11614;SDS011;5863;52.832;4.758;2024-01-30T14:29:09;14.90;;;3.78;;
11614;SDS011;5863;52.832;4.758;2024-01-30T14:31:36;19.92;;;3.55;;
11614;SDS011;5863;52.832;4.758;2024-01-30T14:34:04;19.48;;;3.97;;
11614;SDS011;5863;52.832;4.758;2024-01-30T14:36:31;20.92;;;3.92;;
11614;SDS011;5863;52.832;4.758;2024-01-30T14:38:58;11.07;;;2.80;;
11614;SDS011;5863;52.832;4.758;2024-01-30T14:41:25;10.40;;;3.00;;
11614;SDS011;5863;52.832;4.758;2024-01-30T14:43:52;12.45;;;3.10;;